createdAt,value
2022-10-09T00:04:00.505Z,17.90
2022-10-09T00:09:04.586Z,17.81
2022-10-09T00:14:06.577Z,17.73
2022-10-09T00:19:08.351Z,17.66
2022-10-09T00:24:10.152Z,17.61
2022-10-09T00:29:11.975Z,17.59
2022-10-09T00:34:13.825Z,17.56
2022-10-09T00:39:15.730Z,17.47
2022-10-09T00:44:45.585Z,17.36
2022-10-09T00:49:48.407Z,17.27
2022-10-09T00:54:50.439Z,17.09
2022-10-09T00:59:52.211Z,17.03
2022-10-09T01:04:54.263Z,16.84
2022-10-09T01:09:59.174Z,16.95
2022-10-09T01:15:24.190Z,16.99
2022-10-09T01:20:54.298Z,16.97
2022-10-09T01:26:14.292Z,16.90
2022-10-09T01:31:17.303Z,16.73
2022-10-09T01:36:20.460Z,16.69
2022-10-09T01:41:22.402Z,16.71
2022-10-09T01:46:32.645Z,16.64
2022-10-09T01:51:55.701Z,16.64
2022-10-09T01:57:00.175Z,16.54
2022-10-09T02:02:02.322Z,16.48
2022-10-09T02:07:05.273Z,16.38
2022-10-09T02:12:10.531Z,16.32
2022-10-09T02:17:17.819Z,16.34
2022-10-09T02:22:23.613Z,16.39
2022-10-09T02:27:26.803Z,16.26
2022-10-09T02:32:28.962Z,16.20
2022-10-09T02:37:31.182Z,16.21
2022-10-09T02:42:33.210Z,16.24
2022-10-09T02:47:35.137Z,16.25
2022-10-09T02:52:37.084Z,16.26
2022-10-09T02:57:38.838Z,16.22
2022-10-09T03:02:40.894Z,16.18
2022-10-09T03:07:50.506Z,16.16
2022-10-09T03:12:52.560Z,16.11
2022-10-09T03:17:54.423Z,16.12
2022-10-09T03:22:56.883Z,16.10
2022-10-09T03:27:58.724Z,16.06
2022-10-09T03:33:00.581Z,16.02
2022-10-09T03:38:02.484Z,16.06
2022-10-09T03:43:04.269Z,16.07
2022-10-09T03:48:06.526Z,16.16
2022-10-09T03:53:12.655Z,16.21
2022-10-09T03:58:14.391Z,16.24
2022-10-09T04:03:16.201Z,16.11
2022-10-09T04:08:18.059Z,16.19
2022-10-09T04:13:20.172Z,16.23
2022-10-09T04:18:22.657Z,16.29
2022-10-09T04:23:26.858Z,16.34
2022-10-09T04:28:30.373Z,16.44
2022-10-09T04:33:32.425Z,16.51
2022-10-09T04:38:34.302Z,16.57
2022-10-09T04:43:36.171Z,16.63
2022-10-09T04:48:42.366Z,16.66
2022-10-09T04:53:45.113Z,16.70
2022-10-09T04:58:48.362Z,16.63
2022-10-09T05:03:50.989Z,16.65
2022-10-09T05:08:54.972Z,16.71
2022-10-09T05:13:56.760Z,16.74
2022-10-09T05:19:00.642Z,16.75
2022-10-09T05:24:05.229Z,16.71
2022-10-09T05:29:10.115Z,16.70
2022-10-09T05:34:11.985Z,16.72
2022-10-09T05:39:13.743Z,16.80
2022-10-09T05:44:15.658Z,16.81
2022-10-09T05:49:17.522Z,16.85
2022-10-09T05:54:19.462Z,16.87
2022-10-09T05:59:21.361Z,16.89
2022-10-09T06:04:25.017Z,16.91
2022-10-09T06:09:27.444Z,16.91
2022-10-09T06:14:29.328Z,16.97
2022-10-09T06:19:31.231Z,17.03
2022-10-09T06:24:33.048Z,17.06
2022-10-09T06:29:34.926Z,17.08
2022-10-09T06:34:37.003Z,17.14
2022-10-09T06:39:38.888Z,17.17
2022-10-09T06:44:43.353Z,17.24
2022-10-09T06:49:45.405Z,17.19
2022-10-09T06:54:47.235Z,17.13
2022-10-09T06:59:50.312Z,17.12
2022-10-09T07:04:52.126Z,17.10
2022-10-09T07:09:54.573Z,17.10
2022-10-09T07:14:56.442Z,17.20
2022-10-09T07:19:58.381Z,17.22
2022-10-09T07:25:00.095Z,17.30
2022-10-09T07:30:02.094Z,17.35
2022-10-09T07:35:04.183Z,17.37
2022-10-09T07:40:06.527Z,17.40
2022-10-09T07:45:08.893Z,17.45
2022-10-09T07:50:11.155Z,17.58
2022-10-09T07:55:13.030Z,17.71
2022-10-09T08:00:15.070Z,17.83
2022-10-09T08:05:16.910Z,17.92
2022-10-09T08:10:18.778Z,18.10
2022-10-09T08:15:20.628Z,18.29
2022-10-09T08:20:22.575Z,18.48
2022-10-09T08:25:24.452Z,18.63
2022-10-09T08:30:26.774Z,18.83
2022-10-09T08:35:33.700Z,19.04
2022-10-09T08:40:48.717Z,19.13
2022-10-09T08:45:51.900Z,19.37
2022-10-09T08:50:54.167Z,19.44
2022-10-09T08:55:57.943Z,19.49
2022-10-09T09:01:16.622Z,19.70
2022-10-09T09:06:46.461Z,19.87
2022-10-09T09:11:51.677Z,20.31
2022-10-09T09:17:15.330Z,21.95
2022-10-09T09:22:17.798Z,21.66
2022-10-09T09:27:31.851Z,22.00
2022-10-09T09:32:34.009Z,23.08
2022-10-09T09:37:37.790Z,23.28
2022-10-09T09:42:40.035Z,23.80
2022-10-09T09:48:12.208Z,24.38
2022-10-09T09:53:25.828Z,24.26
2022-10-09T09:58:34.429Z,24.36
2022-10-09T10:03:36.908Z,24.49
2022-10-09T10:08:38.916Z,24.84
2022-10-09T10:13:49.488Z,24.51
2022-10-09T10:18:51.759Z,23.63
2022-10-09T10:23:57.375Z,23.96
2022-10-09T10:29:06.381Z,24.66
2022-10-09T10:34:16.030Z,24.87
2022-10-09T10:39:54.639Z,25.59
2022-10-09T10:45:15.189Z,25.40
2022-10-09T10:50:18.209Z,25.74
2022-10-09T10:55:27.037Z,25.68
2022-10-09T11:00:29.421Z,25.02
2022-10-09T11:05:47.613Z,24.47
2022-10-09T11:11:07.649Z,24.46
2022-10-09T11:16:47.310Z,24.04
2022-10-09T11:22:23.092Z,24.07
2022-10-09T11:27:47.874Z,23.66
2022-10-09T11:33:11.041Z,23.47
2022-10-09T11:39:06.552Z,23.25
2022-10-09T11:44:17.438Z,23.07
2022-10-09T11:49:34.274Z,23.00
2022-10-09T11:54:36.455Z,22.93
2022-10-09T11:59:42.294Z,22.98
2022-10-09T12:04:54.406Z,22.79
2022-10-09T12:10:03.459Z,22.98
2022-10-09T12:15:46.334Z,23.10
2022-10-09T12:20:49.998Z,22.98
2022-10-09T12:25:54.338Z,22.75
2022-10-09T12:30:58.445Z,22.73
2022-10-09T12:36:10.498Z,22.63
2022-10-09T12:41:21.038Z,22.66
2022-10-09T12:46:37.819Z,22.70
2022-10-09T12:51:39.849Z,22.90
2022-10-09T12:56:42.411Z,22.93
2022-10-09T13:01:45.897Z,23.06
2022-10-09T13:06:50.120Z,23.11
2022-10-09T13:11:56.317Z,22.98
2022-10-09T13:16:58.266Z,23.05
2022-10-09T13:22:21.402Z,23.10
2022-10-09T13:27:33.117Z,23.34
2022-10-09T13:32:35.061Z,23.31
2022-10-09T13:37:37.254Z,23.28
2022-10-09T13:42:39.529Z,23.36
2022-10-09T13:47:41.458Z,23.46
2022-10-09T13:52:43.319Z,23.56
2022-10-09T13:57:49.769Z,23.59
2022-10-09T14:02:55.679Z,23.52
2022-10-09T14:07:57.561Z,23.58
2022-10-09T14:12:59.503Z,23.62
2022-10-09T14:18:01.945Z,23.60
2022-10-09T14:23:03.904Z,23.58
2022-10-09T14:28:05.997Z,23.44
2022-10-09T14:33:07.974Z,23.63
2022-10-09T14:38:09.988Z,23.71
2022-10-09T14:43:12.264Z,23.56
2022-10-09T14:48:14.491Z,23.49
2022-10-09T14:53:16.691Z,23.50
2022-10-09T14:58:18.895Z,23.75
2022-10-09T15:03:20.906Z,23.94
2022-10-09T15:08:22.794Z,24.00
2022-10-09T15:13:24.670Z,24.12
2022-10-09T15:18:27.723Z,24.08
2022-10-09T15:23:30.121Z,23.84
2022-10-09T15:28:32.415Z,23.87
2022-10-09T15:33:34.571Z,23.81
2022-10-09T15:38:36.453Z,23.65
2022-10-09T15:43:41.139Z,23.58
2022-10-09T15:48:43.581Z,23.66
2022-10-09T15:53:47.240Z,23.75
2022-10-09T15:58:49.939Z,23.76
2022-10-09T16:03:52.534Z,23.66
2022-10-09T16:08:58.319Z,23.66
2022-10-09T16:14:00.854Z,23.61
2022-10-09T16:19:04.914Z,23.51
2022-10-09T16:24:09.810Z,23.38
2022-10-09T16:29:13.645Z,23.45
2022-10-09T16:34:18.022Z,23.39
2022-10-09T16:39:23.965Z,23.40
2022-10-09T16:44:26.129Z,23.18
2022-10-09T16:49:31.225Z,23.10
2022-10-09T16:54:33.230Z,22.99
2022-10-09T16:59:35.601Z,22.81
2022-10-09T17:04:37.791Z,22.76
2022-10-09T17:09:40.609Z,22.63
2022-10-09T17:14:42.523Z,22.46
2022-10-09T17:19:45.953Z,22.22
2022-10-09T17:24:47.894Z,22.13
2022-10-09T17:29:50.157Z,21.90
2022-10-09T17:34:52.093Z,21.82
2022-10-09T17:39:53.922Z,21.70
2022-10-09T17:44:55.739Z,21.66
2022-10-09T17:49:57.581Z,21.49
2022-10-09T17:54:59.424Z,21.44
2022-10-09T18:00:01.655Z,21.33
2022-10-09T18:05:04.289Z,21.22
2022-10-09T18:10:06.725Z,21.19
2022-10-09T18:15:09.193Z,21.18
2022-10-09T18:20:11.162Z,21.05
2022-10-09T18:25:13.155Z,21.01
2022-10-09T18:30:15.233Z,20.91
2022-10-09T18:35:17.222Z,20.82
2022-10-09T18:40:19.766Z,20.77
2022-10-09T18:45:21.634Z,20.65
2022-10-09T18:50:23.754Z,20.59
2022-10-09T18:55:25.847Z,20.57
2022-10-09T19:00:27.906Z,20.49
2022-10-09T19:05:29.927Z,20.50
2022-10-09T19:10:31.875Z,20.43
2022-10-09T19:15:34.329Z,20.28
2022-10-09T19:20:39.329Z,20.20
2022-10-09T19:25:55.514Z,20.12
2022-10-09T19:30:57.537Z,20.05
2022-10-09T19:35:59.632Z,19.90
2022-10-09T19:41:11.022Z,19.99
2022-10-09T19:46:17.609Z,19.94
2022-10-09T19:51:22.955Z,19.87
2022-10-09T19:56:27.061Z,19.77
2022-10-09T20:01:29.589Z,19.73
2022-10-09T20:06:31.722Z,19.54
2022-10-09T20:11:34.884Z,19.53
2022-10-09T20:16:37.081Z,19.46
2022-10-09T20:21:39.054Z,19.43
2022-10-09T20:26:43.115Z,19.37
2022-10-09T20:31:45.398Z,19.40
2022-10-09T20:36:47.335Z,19.26
2022-10-09T20:41:49.483Z,19.25
2022-10-09T20:46:56.595Z,19.22
2022-10-09T20:51:58.537Z,19.14
2022-10-09T20:57:00.369Z,19.10
2022-10-09T21:02:02.298Z,19.13
2022-10-09T21:07:04.232Z,19.06
2022-10-09T21:12:07.083Z,18.98
2022-10-09T21:17:09.040Z,18.97
2022-10-09T21:22:10.838Z,18.99
2022-10-09T21:27:13.054Z,19.01
2022-10-09T21:32:14.967Z,19.03
2022-10-09T21:37:21.586Z,19.04
2022-10-09T21:42:24.024Z,18.96
2022-10-09T21:47:25.841Z,18.86
2022-10-09T21:52:27.710Z,18.72
2022-10-09T21:57:29.597Z,18.68
2022-10-09T22:02:31.753Z,18.53
2022-10-09T22:07:33.981Z,18.47
2022-10-09T22:12:37.953Z,18.44
2022-10-09T22:17:39.975Z,18.41
2022-10-09T22:22:41.822Z,18.47
2022-10-09T22:27:43.606Z,18.53
2022-10-09T22:32:45.480Z,18.52
2022-10-09T22:37:47.605Z,18.48
2022-10-09T22:42:49.668Z,18.47
2022-10-09T22:47:51.550Z,18.43
2022-10-09T22:52:53.538Z,18.41
2022-10-09T22:57:55.468Z,18.34
2022-10-09T23:02:57.318Z,18.27
2022-10-09T23:07:59.158Z,18.23
2022-10-09T23:13:01.007Z,18.23
2022-10-09T23:18:04.498Z,18.27
2022-10-09T23:23:06.313Z,18.31
2022-10-09T23:28:08.391Z,18.35
2022-10-09T23:33:10.250Z,18.28
2022-10-09T23:38:12.246Z,18.21
2022-10-09T23:43:14.068Z,18.13
2022-10-09T23:48:15.955Z,17.95
2022-10-09T23:53:18.329Z,17.95
2022-10-09T23:58:21.765Z,17.83
